sensor_id;sensor_type;location;lat;lon;timestamp;temperature;humidity
21163;DHT22;10739;52.198;20.908;2023-04-01T00:01:00;9.30;99.90
21163;DHT22;10739;52.198;20.908;2023-04-01T00:03:28;9.30;99.90
21163;DHT22;10739;52.198;20.908;2023-04-01T00:05:56;9.30;99.90
21163;DHT22;10739;52.198;20.908;2023-04-01T00:08:24;9.30;99.90
21163;DHT22;10739;52.198;20.908;2023-04-01T00:10:52;9.30;99.90
21163;DHT22;10739;52.198;20.908;2023-04-01T00:13:19;9.20;99.90
21163;DHT22;10739;52.198;20.908;2023-04-01T00:15:46;9.20;99.90
21163;DHT22;10739;52.198;20.908;2023-04-01T00:18:13;9.20;99.90
21163;DHT22;10739;52.198;20.908;2023-04-01T00:20:45;9.20;99.90
21163;DHT22;10739;52.198;20.908;2023-04-01T00:23:13;9.20;99.90
21163;DHT22;10739;52.198;20.908;2023-04-01T00:25:42;9.20;99.90
21163;DHT22;10739;52.198;20.908;2023-04-01T00:28:10;9.20;99.90
21163;DHT22;10739;52.198;20.908;2023-04-01T00:30:38;9.10;99.90
21163;DHT22;10739;52.198;20.908;2023-04-01T00:33:04;9.10;99.90
21163;DHT22;10739;52.198;20.908;2023-04-01T00:35:31;9.10;99.90
21163;DHT22;10739;52.198;20.908;2023-04-01T00:37:58;9.10;99.90
21163;DHT22;10739;52.198;20.908;2023-04-01T00:42:57;9.10;99.90
21163;DHT22;10739;52.198;20.908;2023-04-01T00:45:35;9.00;99.90
21163;DHT22;10739;52.198;20.908;2023-04-01T00:48:13;9.00;99.90
21163;DHT22;10739;52.198;20.908;2023-04-01T00:50:46;9.10;99.90
21163;DHT22;10739;52.198;20.908;2023-04-01T00:53:18;9.00;99.90
21163;DHT22;10739;52.198;20.908;2023-04-01T00:55:52;9.00;99.90
21163;DHT22;10739;52.198;20.908;2023-04-01T00:58:24;9.00;99.90
21163;DHT22;10739;52.198;20.908;2023-04-01T01:00:57;9.00;99.90
21163;DHT22;10739;52.198;20.908;2023-04-01T01:03:25;9.10;99.90
21163;DHT22;10739;52.198;20.908;2023-04-01T01:15:02;9.10;99.90
21163;DHT22;10739;52.198;20.908;2023-04-01T01:20:48;9.10;99.90
21163;DHT22;10739;52.198;20.908;2023-04-01T01:32:18;9.00;99.90
21163;DHT22;10739;52.198;20.908;2023-04-01T01:38:17;9.00;99.90
21163;DHT22;10739;52.198;20.908;2023-04-01T01:40:49;9.00;99.90
21163;DHT22;10739;52.198;20.908;2023-04-01T01:43:26;9.00;99.90
21163;DHT22;10739;52.198;20.908;2023-04-01T01:46:01;9.00;99.90
21163;DHT22;10739;52.198;20.908;2023-04-01T01:48:34;9.00;99.90
21163;DHT22;10739;52.198;20.908;2023-04-01T01:51:03;9.00;99.90
21163;DHT22;10739;52.198;20.908;2023-04-01T01:53:31;9.00;99.90
21163;DHT22;10739;52.198;20.908;2023-04-01T01:55:57;9.10;99.90
21163;DHT22;10739;52.198;20.908;2023-04-01T01:58:25;9.10;99.90
21163;DHT22;10739;52.198;20.908;2023-04-01T02:01:35;9.10;99.90
21163;DHT22;10739;52.198;20.908;2023-04-01T02:04:06;9.00;99.90
21163;DHT22;10739;52.198;20.908;2023-04-01T02:06:39;9.00;99.90
21163;DHT22;10739;52.198;20.908;2023-04-01T02:09:10;9.00;99.90
21163;DHT22;10739;52.198;20.908;2023-04-01T02:14:28;9.00;99.90
21163;DHT22;10739;52.198;20.908;2023-04-01T02:17:09;9.00;99.90
21163;DHT22;10739;52.198;20.908;2023-04-01T02:19:40;9.00;99.90
21163;DHT22;10739;52.198;20.908;2023-04-01T02:22:16;9.00;99.90
21163;DHT22;10739;52.198;20.908;2023-04-01T02:24:52;9.00;99.90
21163;DHT22;10739;52.198;20.908;2023-04-01T02:27:21;9.00;99.90
21163;DHT22;10739;52.198;20.908;2023-04-01T02:29:47;9.00;99.90
21163;DHT22;10739;52.198;20.908;2023-04-01T02:32:14;9.00;99.90
21163;DHT22;10739;52.198;20.908;2023-04-01T02:34:43;8.90;99.90
21163;DHT22;10739;52.198;20.908;2023-04-01T02:37:11;8.90;99.90
21163;DHT22;10739;52.198;20.908;2023-04-01T02:39:39;8.80;99.90
21163;DHT22;10739;52.198;20.908;2023-04-01T02:42:06;8.80;99.90
21163;DHT22;10739;52.198;20.908;2023-04-01T02:44:32;8.80;99.90
21163;DHT22;10739;52.198;20.908;2023-04-01T02:46:58;8.80;99.90
21163;DHT22;10739;52.198;20.908;2023-04-01T02:49:25;8.70;99.90
21163;DHT22;10739;52.198;20.908;2023-04-01T02:51:51;8.70;99.90
21163;DHT22;10739;52.198;20.908;2023-04-01T02:54:18;8.70;99.90
21163;DHT22;10739;52.198;20.908;2023-04-01T02:56:45;8.70;99.90
21163;DHT22;10739;52.198;20.908;2023-04-01T02:59:12;8.70;99.90
21163;DHT22;10739;52.198;20.908;2023-04-01T03:01:38;8.80;99.90
21163;DHT22;10739;52.198;20.908;2023-04-01T03:04:05;8.80;99.90
21163;DHT22;10739;52.198;20.908;2023-04-01T03:06:31;8.80;99.90
21163;DHT22;10739;52.198;20.908;2023-04-01T03:08:57;8.80;99.90
21163;DHT22;10739;52.198;20.908;2023-04-01T03:11:23;8.80;99.90
21163;DHT22;10739;52.198;20.908;2023-04-01T03:13:52;8.80;99.90
21163;DHT22;10739;52.198;20.908;2023-04-01T03:16:18;8.90;99.90
21163;DHT22;10739;52.198;20.908;2023-04-01T03:18:44;8.80;99.90
21163;DHT22;10739;52.198;20.908;2023-04-01T03:21:17;8.80;99.90
21163;DHT22;10739;52.198;20.908;2023-04-01T03:23:46;8.80;99.90
21163;DHT22;10739;52.198;20.908;2023-04-01T03:26:12;8.80;99.90
21163;DHT22;10739;52.198;20.908;2023-04-01T03:28:39;8.80;99.90
21163;DHT22;10739;52.198;20.908;2023-04-01T03:31:05;8.80;99.90
21163;DHT22;10739;52.198;20.908;2023-04-01T03:33:32;8.80;99.90
21163;DHT22;10739;52.198;20.908;2023-04-01T03:35:58;8.80;99.90
21163;DHT22;10739;52.198;20.908;2023-04-01T03:38:25;8.70;99.90
21163;DHT22;10739;52.198;20.908;2023-04-01T03:40:51;8.80;99.90
21163;DHT22;10739;52.198;20.908;2023-04-01T03:43:17;8.80;99.90
21163;DHT22;10739;52.198;20.908;2023-04-01T03:45:48;8.80;99.90
21163;DHT22;10739;52.198;20.908;2023-04-01T03:48:16;8.80;99.90
21163;DHT22;10739;52.198;20.908;2023-04-01T03:50:44;8.80;99.90
21163;DHT22;10739;52.198;20.908;2023-04-01T03:53:10;8.70;99.90
21163;DHT22;10739;52.198;20.908;2023-04-01T03:55:37;8.70;99.90
21163;DHT22;10739;52.198;20.908;2023-04-01T03:58:06;8.70;99.90
21163;DHT22;10739;52.198;20.908;2023-04-01T04:00:32;8.70;99.90
21163;DHT22;10739;52.198;20.908;2023-04-01T04:02:59;8.80;99.90
21163;DHT22;10739;52.198;20.908;2023-04-01T04:05:26;8.70;99.90
21163;DHT22;10739;52.198;20.908;2023-04-01T04:07:53;8.70;99.90
21163;DHT22;10739;52.198;20.908;2023-04-01T04:10:19;8.70;99.90
21163;DHT22;10739;52.198;20.908;2023-04-01T04:12:46;8.70;99.90
21163;DHT22;10739;52.198;20.908;2023-04-01T04:15:12;8.80;99.90
21163;DHT22;10739;52.198;20.908;2023-04-01T04:17:38;8.70;99.90
21163;DHT22;10739;52.198;20.908;2023-04-01T04:20:05;8.70;99.90
21163;DHT22;10739;52.198;20.908;2023-04-01T04:22:32;8.70;99.90
21163;DHT22;10739;52.198;20.908;2023-04-01T04:24:58;8.70;99.90
21163;DHT22;10739;52.198;20.908;2023-04-01T04:27:24;8.70;99.90
21163;DHT22;10739;52.198;20.908;2023-04-01T04:29:50;8.70;99.90
21163;DHT22;10739;52.198;20.908;2023-04-01T04:32:16;8.70;99.90
21163;DHT22;10739;52.198;20.908;2023-04-01T04:34:42;8.70;99.90
21163;DHT22;10739;52.198;20.908;2023-04-01T04:37:09;8.70;99.90
21163;DHT22;10739;52.198;20.908;2023-04-01T04:39:35;8.70;99.90
21163;DHT22;10739;52.198;20.908;2023-04-01T04:42:01;8.70;99.90
21163;DHT22;10739;52.198;20.908;2023-04-01T04:44:28;8.70;99.90
21163;DHT22;10739;52.198;20.908;2023-04-01T04:46:54;8.70;99.90
21163;DHT22;10739;52.198;20.908;2023-04-01T04:49:21;8.70;99.90
21163;DHT22;10739;52.198;20.908;2023-04-01T04:51:47;8.70;99.90
21163;DHT22;10739;52.198;20.908;2023-04-01T04:54:14;8.60;99.90
21163;DHT22;10739;52.198;20.908;2023-04-01T04:56:40;8.70;99.90
21163;DHT22;10739;52.198;20.908;2023-04-01T04:59:06;8.70;99.90
21163;DHT22;10739;52.198;20.908;2023-04-01T05:01:32;8.70;99.90
21163;DHT22;10739;52.198;20.908;2023-04-01T05:03:59;8.70;99.90
21163;DHT22;10739;52.198;20.908;2023-04-01T05:06:25;8.70;99.90
21163;DHT22;10739;52.198;20.908;2023-04-01T05:08:55;8.70;99.90
21163;DHT22;10739;52.198;20.908;2023-04-01T05:11:22;8.60;99.90
21163;DHT22;10739;52.198;20.908;2023-04-01T05:13:49;8.60;99.90
21163;DHT22;10739;52.198;20.908;2023-04-01T05:16:18;8.60;99.90
21163;DHT22;10739;52.198;20.908;2023-04-01T05:18:45;8.70;99.90
21163;DHT22;10739;52.198;20.908;2023-04-01T05:21:13;8.60;99.90
21163;DHT22;10739;52.198;20.908;2023-04-01T05:23:41;8.70;99.90
21163;DHT22;10739;52.198;20.908;2023-04-01T05:26:11;8.70;99.90
21163;DHT22;10739;52.198;20.908;2023-04-01T05:28:39;8.70;99.90
21163;DHT22;10739;52.198;20.908;2023-04-01T05:31:06;8.80;99.90
21163;DHT22;10739;52.198;20.908;2023-04-01T05:33:33;8.80;99.90
21163;DHT22;10739;52.198;20.908;2023-04-01T05:36:11;8.80;99.90
21163;DHT22;10739;52.198;20.908;2023-04-01T05:38:39;8.90;99.90
21163;DHT22;10739;52.198;20.908;2023-04-01T05:41:06;8.90;99.90
21163;DHT22;10739;52.198;20.908;2023-04-01T05:43:32;8.90;99.90
21163;DHT22;10739;52.198;20.908;2023-04-01T05:46:01;8.90;99.90
21163;DHT22;10739;52.198;20.908;2023-04-01T05:48:28;8.90;99.90
21163;DHT22;10739;52.198;20.908;2023-04-01T05:50:54;9.00;99.90
21163;DHT22;10739;52.198;20.908;2023-04-01T05:53:20;9.00;99.90
21163;DHT22;10739;52.198;20.908;2023-04-01T05:55:50;9.00;99.90
21163;DHT22;10739;52.198;20.908;2023-04-01T05:58:16;9.00;99.90
21163;DHT22;10739;52.198;20.908;2023-04-01T06:00:43;9.00;99.90
21163;DHT22;10739;52.198;20.908;2023-04-01T06:03:09;9.00;99.90
21163;DHT22;10739;52.198;20.908;2023-04-01T06:05:40;9.10;99.90
21163;DHT22;10739;52.198;20.908;2023-04-01T06:08:16;9.10;99.90
21163;DHT22;10739;52.198;20.908;2023-04-01T06:20:41;9.30;99.90
21163;DHT22;10739;52.198;20.908;2023-04-01T06:23:41;9.40;99.90
21163;DHT22;10739;52.198;20.908;2023-04-01T06:26:37;9.30;99.90
21163;DHT22;10739;52.198;20.908;2023-04-01T06:29:39;9.40;99.90
21163;DHT22;10739;52.198;20.908;2023-04-01T06:32:40;9.40;99.90
21163;DHT22;10739;52.198;20.908;2023-04-01T06:35:14;9.30;99.90
21163;DHT22;10739;52.198;20.908;2023-04-01T06:38:09;9.30;99.90
21163;DHT22;10739;52.198;20.908;2023-04-01T06:49:50;9.40;99.90
21163;DHT22;10739;52.198;20.908;2023-04-01T06:52:33;9.50;99.90
21163;DHT22;10739;52.198;20.908;2023-04-01T06:55:36;9.40;99.90
21163;DHT22;10739;52.198;20.908;2023-04-01T06:58:22;9.50;99.90
21163;DHT22;10739;52.198;20.908;2023-04-01T07:00:54;9.60;99.90
21163;DHT22;10739;52.198;20.908;2023-04-01T07:03:43;9.60;99.90
21163;DHT22;10739;52.198;20.908;2023-04-01T07:06:45;9.50;99.90
21163;DHT22;10739;52.198;20.908;2023-04-01T07:09:26;9.50;99.90
21163;DHT22;10739;52.198;20.908;2023-04-01T07:12:10;9.40;99.90
21163;DHT22;10739;52.198;20.908;2023-04-01T07:14:45;9.40;99.90
21163;DHT22;10739;52.198;20.908;2023-04-01T07:17:25;9.30;99.90
21163;DHT22;10739;52.198;20.908;2023-04-01T07:20:13;9.30;99.90
21163;DHT22;10739;52.198;20.908;2023-04-01T07:22:51;9.30;99.90
21163;DHT22;10739;52.198;20.908;2023-04-01T07:25:24;9.30;99.90
21163;DHT22;10739;52.198;20.908;2023-04-01T07:28:03;9.30;99.90
21163;DHT22;10739;52.198;20.908;2023-04-01T07:31:10;9.40;99.90
21163;DHT22;10739;52.198;20.908;2023-04-01T07:34:23;9.50;99.90
21163;DHT22;10739;52.198;20.908;2023-04-01T07:49:07;9.80;99.90
21163;DHT22;10739;52.198;20.908;2023-04-01T08:04:04;9.90;99.90
21163;DHT22;10739;52.198;20.908;2023-04-01T08:07:43;9.80;99.90
21163;DHT22;10739;52.198;20.908;2023-04-01T08:10:04;9.80;99.90
21163;DHT22;10739;52.198;20.908;2023-04-01T08:19:15;10.20;99.90
21163;DHT22;10739;52.198;20.908;2023-04-01T08:22:00;10.30;99.90
21163;DHT22;10739;52.198;20.908;2023-04-01T08:24:42;10.20;99.90
21163;DHT22;10739;52.198;20.908;2023-04-01T08:44:37;9.80;99.90
21163;DHT22;10739;52.198;20.908;2023-04-01T08:59:27;9.80;99.90
21163;DHT22;10739;52.198;20.908;2023-04-01T09:35:45;9.60;99.90
21163;DHT22;10739;52.198;20.908;2023-04-01T09:41:30;9.70;99.90
21163;DHT22;10739;52.198;20.908;2023-04-01T09:44:05;9.70;99.90
21163;DHT22;10739;52.198;20.908;2023-04-01T09:59:47;10.30;99.90
21163;DHT22;10739;52.198;20.908;2023-04-01T10:26:49;10.20;99.90
21163;DHT22;10739;52.198;20.908;2023-04-01T10:30:21;10.10;99.90
21163;DHT22;10739;52.198;20.908;2023-04-01T10:33:20;10.00;99.90
21163;DHT22;10739;52.198;20.908;2023-04-01T11:19:12;10.40;99.90
21163;DHT22;10739;52.198;20.908;2023-04-01T11:37:56;10.80;99.90
21163;DHT22;10739;52.198;20.908;2023-04-01T11:44:17;10.60;99.90
21163;DHT22;10739;52.198;20.908;2023-04-01T11:50:26;10.60;99.90
21163;DHT22;10739;52.198;20.908;2023-04-01T11:53:23;10.60;99.90
21163;DHT22;10739;52.198;20.908;2023-04-01T11:56:32;10.40;99.90
21163;DHT22;10739;52.198;20.908;2023-04-01T12:08:25;10.80;99.90
21163;DHT22;10739;52.198;20.908;2023-04-01T12:11:44;10.80;99.90
21163;DHT22;10739;52.198;20.908;2023-04-01T12:14:13;10.80;99.90
21163;DHT22;10739;52.198;20.908;2023-04-01T12:28:25;11.40;99.90
21163;DHT22;10739;52.198;20.908;2023-04-01T12:31:22;11.80;99.90
21163;DHT22;10739;52.198;20.908;2023-04-01T12:34:22;12.00;99.90
21163;DHT22;10739;52.198;20.908;2023-04-01T12:37:27;12.30;99.90
21163;DHT22;10739;52.198;20.908;2023-04-01T12:46:41;13.00;99.90
21163;DHT22;10739;52.198;20.908;2023-04-01T12:49:27;12.90;99.90
21163;DHT22;10739;52.198;20.908;2023-04-01T12:52:18;12.70;99.90
21163;DHT22;10739;52.198;20.908;2023-04-01T12:58:23;13.20;99.90
21163;DHT22;10739;52.198;20.908;2023-04-01T13:10:51;13.00;99.90
21163;DHT22;10739;52.198;20.908;2023-04-01T13:20:29;12.50;99.90
21163;DHT22;10739;52.198;20.908;2023-04-01T13:29:14;11.60;99.90
21163;DHT22;10739;52.198;20.908;2023-04-01T13:44:06;11.10;99.90
21163;DHT22;10739;52.198;20.908;2023-04-01T13:46:42;11.30;99.90
21163;DHT22;10739;52.198;20.908;2023-04-01T13:49:47;11.50;99.90
21163;DHT22;10739;52.198;20.908;2023-04-01T13:52:29;11.50;99.90
21163;DHT22;10739;52.198;20.908;2023-04-01T13:55:26;11.50;99.90
21163;DHT22;10739;52.198;20.908;2023-04-01T14:16:09;10.90;99.90
21163;DHT22;10739;52.198;20.908;2023-04-01T14:19:14;10.80;99.90
21163;DHT22;10739;52.198;20.908;2023-04-01T14:35:37;10.30;99.90
21163;DHT22;10739;52.198;20.908;2023-04-01T14:38:26;10.30;99.90
21163;DHT22;10739;52.198;20.908;2023-04-01T14:47:11;10.10;99.90
21163;DHT22;10739;52.198;20.908;2023-04-01T14:49:53;10.20;99.90
21163;DHT22;10739;52.198;20.908;2023-04-01T14:52:36;10.10;99.90
21163;DHT22;10739;52.198;20.908;2023-04-01T14:58:14;10.00;99.90
21163;DHT22;10739;52.198;20.908;2023-04-01T15:12:03;10.00;99.90
21163;DHT22;10739;52.198;20.908;2023-04-01T15:18:09;10.00;99.90
21163;DHT22;10739;52.198;20.908;2023-04-01T15:23:20;9.60;99.90
21163;DHT22;10739;52.198;20.908;2023-04-01T15:37:55;9.40;99.90
21163;DHT22;10739;52.198;20.908;2023-04-01T15:40:49;9.50;99.90
21163;DHT22;10739;52.198;20.908;2023-04-01T15:43:46;9.50;99.90
21163;DHT22;10739;52.198;20.908;2023-04-01T15:46:47;9.50;99.90
21163;DHT22;10739;52.198;20.908;2023-04-01T15:55:39;9.50;99.90
21163;DHT22;10739;52.198;20.908;2023-04-01T15:58:36;9.50;99.90
21163;DHT22;10739;52.198;20.908;2023-04-01T16:01:38;9.50;99.90
21163;DHT22;10739;52.198;20.908;2023-04-01T16:07:28;9.40;99.90
21163;DHT22;10739;52.198;20.908;2023-04-01T16:10:29;9.40;99.90
21163;DHT22;10739;52.198;20.908;2023-04-01T16:16:38;9.40;99.90
21163;DHT22;10739;52.198;20.908;2023-04-01T16:25:17;9.40;99.90
21163;DHT22;10739;52.198;20.908;2023-04-01T16:34:31;9.20;99.90
21163;DHT22;10739;52.198;20.908;2023-04-01T16:37:11;9.20;99.90
21163;DHT22;10739;52.198;20.908;2023-04-01T16:42:53;9.30;99.90
21163;DHT22;10739;52.198;20.908;2023-04-01T16:45:45;9.20;99.90
21163;DHT22;10739;52.198;20.908;2023-04-01T16:48:25;9.20;99.90
21163;DHT22;10739;52.198;20.908;2023-04-01T16:51:03;9.10;99.90
21163;DHT22;10739;52.198;20.908;2023-04-01T16:53:48;9.10;99.90
21163;DHT22;10739;52.198;20.908;2023-04-01T16:56:22;9.10;99.90
21163;DHT22;10739;52.198;20.908;2023-04-01T16:58:57;9.10;99.90
21163;DHT22;10739;52.198;20.908;2023-04-01T17:04:43;9.20;99.90
21163;DHT22;10739;52.198;20.908;2023-04-01T17:07:46;9.20;99.90
21163;DHT22;10739;52.198;20.908;2023-04-01T17:13:57;9.10;99.90
21163;DHT22;10739;52.198;20.908;2023-04-01T17:22:39;9.10;99.90
21163;DHT22;10739;52.198;20.908;2023-04-01T17:31:20;9.10;99.90
21163;DHT22;10739;52.198;20.908;2023-04-01T17:34:35;9.00;99.90
21163;DHT22;10739;52.198;20.908;2023-04-01T17:37:38;8.90;99.90
21163;DHT22;10739;52.198;20.908;2023-04-01T17:43:21;8.90;99.90
21163;DHT22;10739;52.198;20.908;2023-04-01T17:46:20;8.90;99.90
21163;DHT22;10739;52.198;20.908;2023-04-01T17:49:06;8.90;99.90
21163;DHT22;10739;52.198;20.908;2023-04-01T17:51:44;8.80;99.90
21163;DHT22;10739;52.198;20.908;2023-04-01T17:54:21;8.80;99.90
21163;DHT22;10739;52.198;20.908;2023-04-01T17:59:52;8.60;99.90
21163;DHT22;10739;52.198;20.908;2023-04-01T18:17:12;8.40;99.90
21163;DHT22;10739;52.198;20.908;2023-04-01T18:22:58;8.30;99.90
21163;DHT22;10739;52.198;20.908;2023-04-01T18:25:35;8.30;99.90
21163;DHT22;10739;52.198;20.908;2023-04-01T18:39:22;8.30;99.90
21163;DHT22;10739;52.198;20.908;2023-04-01T18:48:44;8.20;99.90
21163;DHT22;10739;52.198;20.908;2023-04-01T18:50:57;8.30;99.90
21163;DHT22;10739;52.198;20.908;2023-04-01T18:53:45;8.30;99.90
21163;DHT22;10739;52.198;20.908;2023-04-01T18:56:44;8.20;99.90
21163;DHT22;10739;52.198;20.908;2023-04-01T19:05:33;8.20;99.90
21163;DHT22;10739;52.198;20.908;2023-04-01T19:25:34;8.10;99.90
21163;DHT22;10739;52.198;20.908;2023-04-01T19:28:22;8.10;99.90
21163;DHT22;10739;52.198;20.908;2023-04-01T19:31:42;8.00;99.90
21163;DHT22;10739;52.198;20.908;2023-04-01T19:40:48;8.00;99.90
21163;DHT22;10739;52.198;20.908;2023-04-01T19:46:19;7.90;99.90
21163;DHT22;10739;52.198;20.908;2023-04-01T19:49:25;8.00;99.90
21163;DHT22;10739;52.198;20.908;2023-04-01T19:52:42;8.00;99.90
21163;DHT22;10739;52.198;20.908;2023-04-01T19:55:39;8.00;99.90
21163;DHT22;10739;52.198;20.908;2023-04-01T20:00:53;8.00;99.90
21163;DHT22;10739;52.198;20.908;2023-04-01T20:06:32;7.90;99.90
21163;DHT22;10739;52.198;20.908;2023-04-01T20:15:04;7.90;99.90
21163;DHT22;10739;52.198;20.908;2023-04-01T20:17:55;7.80;99.90
21163;DHT22;10739;52.198;20.908;2023-04-01T20:20:28;7.80;99.90
21163;DHT22;10739;52.198;20.908;2023-04-01T20:26:08;7.70;99.90
21163;DHT22;10739;52.198;20.908;2023-04-01T20:31:52;7.70;99.90
21163;DHT22;10739;52.198;20.908;2023-04-01T20:38:19;7.60;99.90
21163;DHT22;10739;52.198;20.908;2023-04-01T20:41:12;7.60;99.90
21163;DHT22;10739;52.198;20.908;2023-04-01T20:44:14;7.60;99.90
21163;DHT22;10739;52.198;20.908;2023-04-01T20:52:40;7.40;99.90
21163;DHT22;10739;52.198;20.908;2023-04-01T20:56:16;7.40;99.90
21163;DHT22;10739;52.198;20.908;2023-04-01T21:01:44;7.40;99.90
21163;DHT22;10739;52.198;20.908;2023-04-01T21:22:25;7.20;99.90
21163;DHT22;10739;52.198;20.908;2023-04-01T21:28:24;7.20;99.90
21163;DHT22;10739;52.198;20.908;2023-04-01T21:37:16;7.20;99.90
21163;DHT22;10739;52.198;20.908;2023-04-01T21:51:40;7.20;99.90
21163;DHT22;10739;52.198;20.908;2023-04-01T22:00:36;7.30;99.90
21163;DHT22;10739;52.198;20.908;2023-04-01T22:03:30;7.30;99.90
21163;DHT22;10739;52.198;20.908;2023-04-01T22:06:10;7.30;99.90
21163;DHT22;10739;52.198;20.908;2023-04-01T22:11:42;7.20;99.90
21163;DHT22;10739;52.198;20.908;2023-04-01T22:20:59;7.20;99.90
21163;DHT22;10739;52.198;20.908;2023-04-01T22:24:17;7.20;99.90
21163;DHT22;10739;52.198;20.908;2023-04-01T22:30:19;7.10;99.90
21163;DHT22;10739;52.198;20.908;2023-04-01T22:43:38;6.90;99.90
21163;DHT22;10739;52.198;20.908;2023-04-01T22:46:46;6.90;99.90
21163;DHT22;10739;52.198;20.908;2023-04-01T22:49:52;6.80;99.90
21163;DHT22;10739;52.198;20.908;2023-04-01T22:56:21;6.80;99.90
21163;DHT22;10739;52.198;20.908;2023-04-01T22:59:24;6.80;99.90
21163;DHT22;10739;52.198;20.908;2023-04-01T23:02:24;6.80;99.90
21163;DHT22;10739;52.198;20.908;2023-04-01T23:05:18;6.70;99.90
21163;DHT22;10739;52.198;20.908;2023-04-01T23:14:35;6.70;99.90
21163;DHT22;10739;52.198;20.908;2023-04-01T23:17:41;6.70;99.90
21163;DHT22;10739;52.198;20.908;2023-04-01T23:27:43;6.80;99.90
21163;DHT22;10739;52.198;20.908;2023-04-01T23:33:29;6.80;99.90
21163;DHT22;10739;52.198;20.908;2023-04-01T23:36:16;6.80;99.90
21163;DHT22;10739;52.198;20.908;2023-04-01T23:39:18;6.70;99.90
21163;DHT22;10739;52.198;20.908;2023-04-01T23:42:29;6.70;99.90
21163;DHT22;10739;52.198;20.908;2023-04-01T23:45:18;6.80;99.90
21163;DHT22;10739;52.198;20.908;2023-04-01T23:48:12;6.80;99.90
21163;DHT22;10739;52.198;20.908;2023-04-01T23:51:02;6.80;99.90
21163;DHT22;10739;52.198;20.908;2023-04-01T23:54:04;6.90;99.90
21163;DHT22;10739;52.198;20.908;2023-04-01T23:57:05;6.90;99.90
